Ferry Katsuragi — JI3611 — position and weather

sailwx.info

Track history (hours):
 
Tides and Currents Weather Stations Pressure Air Temp Water Temp Dewpoint Dewpoint Depression Visibility Wind Speed Wind Dir Waves Ship Positions

Ferry Katsuragi

Last reported at 2014-Nov-21 17:34 UTC. Time now 2014-Nov-21 18:02 UTC.
Position N 34°13' E 135°09'.

Length 108 m; draft 4 m.

Type: Passenger vessel. MMSI: 431301245.

Date/timePositionNaut miles runAvg speedWind from/ knotsBaromVisibWave heightAir tempDewpointWater temp
2014-Nov-21 17:34N 34°13' E 135°09'0 0.0
2014-Nov-21 16:34N 34°13' E 135°09'0 0.0
2014-Nov-21 15:34N 34°13' E 135°09'7 6.6
2014-Nov-21 14:33N 34°11' E 135°01'11 3.6
2014-Nov-21 11:30N 34°07' E 134°49'1414.9
2014-Nov-21 10:33N 34°12' E 135°04'3 3.3
2014-Nov-21 09:33N 34°13' E 135°08'10 2.4
2014-Nov-21 05:25N 34°10' E 134°57'1011.6
2014-Nov-21 04:33N 34°13' E 135°09'6 6.1
2014-Nov-21 03:34N 34°11' E 135°02'19 8.2
2014-Nov-21 01:12N 34°04' E 134°40'1215.1
2014-Nov-21 00:25N 34°09' E 134°53'1314.9
2014-Nov-20 23:33N 34°13' E 135°08'2 1.8
2014-Nov-20 22:33N 34°13' E 135°06'23 7.4
2014-Nov-20 19:32N 34°04' E 134°40'1313.4
2014-Nov-20 18:33N 34°09' E 134°55'1211.9
2014-Nov-20 17:33N 34°13' E 135°09'0 0.0
2014-Nov-20 16:33N 34°13' E 135°09'0 0.0
2014-Nov-20 15:34N 34°13' E 135°09'7 6.9
2014-Nov-20 14:33N 34°11' E 135°01'11 3.7
2014-Nov-20 11:33N 34°07' E 134°48'1414.3
2014-Nov-20 10:33N 34°12' E 135°04'4 3.7
2014-Nov-20 09:33N 34°13' E 135°08'20 5.8
2014-Nov-20 06:08N 34°06' E 134°46'1014.3
2014-Nov-20 05:28N 34°09' E 134°57'1111.8
2014-Nov-20 04:34N 34°13' E 135°09'6 6.4
2014-Nov-20 03:34N 34°11' E 135°01'4 1.3
2014-Nov-20 00:14N 34°09' E 134°57'1015.1
2014-Nov-19 23:33N 34°13' E 135°08'1 1.1
2014-Nov-19 22:33N 34°13' E 135°06'19 5.6
2014-Nov-19 19:11N 34°06' E 134°45'1013.8
2014-Nov-19 18:28N 34°09' E 134°57'1111.7
2014-Nov-19 17:33N 34°13' E 135°09'0 0.0
2014-Nov-19 16:33N 34°13' E 135°09'0 0.0
2014-Nov-19 15:33N 34°13' E 135°09'7 6.8
2014-Nov-19 14:34N 34°11' E 135°01'3 0.7
2014-Nov-19 10:33N 34°12' E 135°04'3 3.5
2014-Nov-19 09:33N 34°13' E 135°08'11 2.8
2014-Nov-19 05:33N 34°09' E 134°55'1211.8
2014-Nov-19 04:33N 34°13' E 135°09'6 6.5
2014-Nov-19 03:33N 34°11' E 135°01'8 2.7
2014-Nov-19 00:30N 34°08' E 134°52'1415.2
2014-Nov-18 23:34N 34°13' E 135°08'2 1.7
2014-Nov-18 22:33N 34°13' E 135°06'18 5.3
2014-Nov-18 19:10N 34°06' E 134°46'913.8
2014-Nov-18 18:33N 34°09' E 134°55'1211.6
2014-Nov-18 17:34N 34°13' E 135°09'0 0.0
2014-Nov-18 16:34N 34°13' E 135°09'0 0.0
2014-Nov-18 15:34N 34°13' E 135°09'7 6.9
2014-Nov-18 14:33N 34°10' E 135°01'11 3.7
2014-Nov-18 11:30N 34°07' E 134°48'1414.9
2014-Nov-18 10:33N 34°12' E 135°04'4 3.8
2014-Nov-18 09:33N 34°13' E 135°08'20 5.8
2014-Nov-18 06:07N 34°06' E 134°46'1014.1
2014-Nov-18 05:23N 34°10' E 134°57'1011.8
2014-Nov-18 04:34N 34°13' E 135°09'6 6.4
2014-Nov-18 03:34N 34°11' E 135°01'4 1.2
2014-Nov-18 00:13N 34°10' E 134°57'1014.9
2014-Nov-17 23:34N 34°13' E 135°08'1 1.5
2014-Nov-17 22:33N 34°13' E 135°06'1514.5
2014-Nov-17 21:33N 34°07' E 134°50'4 1.7
2014-Nov-17 19:15N 34°06' E 134°45'1013.3
2014-Nov-17 18:31N 34°09' E 134°57'1111.2
2014-Nov-17 17:34N 34°13' E 135°09'0 0.0
2014-Nov-17 16:33N 34°13' E 135°09'0 0.0
2014-Nov-17 15:33N 34°13' E 135°09'7 7.0
2014-Nov-17 14:31N 34°11' E 135°00'10 3.5
2014-Nov-17 11:33N 34°07' E 134°48'1414.0
2014-Nov-17 10:34N 34°12' E 135°04'4 3.8
2014-Nov-17 09:34N 34°13' E 135°09'11 2.8
2014-Nov-17 05:32N 34°10' E 134°55'1111.6
2014-Nov-17 04:33N 34°13' E 135°09'6 6.0
2014-Nov-17 03:33N 34°12' E 135°02'9 3.0
2014-Nov-17 00:31N 34°07' E 134°52'1515.2
2014-Nov-16 23:33N 34°13' E 135°08'2 1.6
2014-Nov-16 22:34N 34°13' E 135°06'18 5.1
2014-Nov-16 19:07N 34°06' E 134°46'813.8
2014-Nov-16 18:33N 34°09' E 134°55'1212.1
2014-Nov-16 17:33N 34°13' E 135°09'0 0.0
2014-Nov-16 16:33N 34°13' E 135°09'0 0.0
2014-Nov-16 15:33N 34°13' E 135°09'6 5.5
2014-Nov-16 14:33N 34°11' E 135°03'2 0.4
2014-Nov-16 10:33N 34°12' E 135°04'4 4.0
2014-Nov-16 09:34N 34°13' E 135°09'12 3.1
2014-Nov-16 05:32N 34°09' E 134°54'1212.6
2014-Nov-16 04:33N 34°13' E 135°09'6 6.0
2014-Nov-16 03:34N 34°10' E 135°02'5 1.4
2014-Nov-16 00:12N 34°10' E 134°56'1015.2
2014-Nov-15 23:33N 34°13' E 135°08'3 2.6
2014-Nov-15 22:33N 34°12' E 135°05'8 2.0
2014-Nov-15 18:31N 34°09' E 134°56'1111.8
2014-Nov-15 17:33N 34°13' E 135°09'0 0.0
2014-Nov-15 16:34N 34°13' E 135°09'0 0.0
2014-Nov-15 15:33N 34°13' E 135°09'7 6.8
2014-Nov-15 14:33N 34°11' E 135°01'12 3.8
2014-Nov-15 11:30N 34°06' E 134°48'1515.6
2014-Nov-15 10:34N 34°12' E 135°04'4 3.8
2014-Nov-15 09:34N 34°13' E 135°09'1414.1
2014-Nov-15 08:33N 34°07' E 134°53'5 1.5
2014-Nov-15 05:26N 34°10' E 134°57'1011.7
2014-Nov-15 04:34N 34°13' E 135°09'6 6.4
2014-Nov-15 03:33N 34°11' E 135°01'9 3.2
2014-Nov-15 00:33N 34°08' E 134°51'1615.7
2014-Nov-14 23:34N 34°13' E 135°08'1 1.4
2014-Nov-14 22:33N 34°13' E 135°06'18 5.1
2014-Nov-14 19:07N 34°07' E 134°46'813.6
2014-Nov-14 18:33N 34°09' E 134°55'1212.0
2014-Nov-14 17:34N 34°13' E 135°09'0 0.0
2014-Nov-14 16:34N 34°13' E 135°09'0 0.0
2014-Nov-14 15:33N 34°13' E 135°09'5 5.4
2014-Nov-14 14:33N 34°12' E 135°02'8 2.4
2014-Nov-14 11:11N 34°08' E 134°54'915.1
2014-Nov-14 10:33N 34°12' E 135°04'4 4.0
2014-Nov-14 09:34N 34°13' E 135°09'11 2.7
2014-Nov-14 05:31N 34°10' E 134°56'1111.5
2014-Nov-14 04:33N 34°13' E 135°09'6 6.4
2014-Nov-14 03:33N 34°12' E 135°01'5 1.5
2014-Nov-14 00:16N 34°09' E 134°56'1115.4
2014-Nov-13 23:34N 34°13' E 135°08'2 1.9
2014-Nov-13 22:33N 34°13' E 135°06'10 2.4
2014-Nov-13 18:32N 34°09' E 134°55'1212.1
2014-Nov-13 17:34N 34°13' E 135°09'0 0.0
2014-Nov-13 16:33N 34°13' E 135°09'0 0.0
2014-Nov-13 15:33N 34°13' E 135°09'7 6.7
2014-Nov-13 14:33N 34°11' E 135°01'11 3.5
2014-Nov-13 11:28N 34°07' E 134°49'1414.8
2014-Nov-13 10:33N 34°12' E 135°04'4 3.6
2014-Nov-13 09:33N 34°13' E 135°08'20 5.7
2014-Nov-13 06:09N 34°06' E 134°46'1014.2
2014-Nov-13 05:28N 34°10' E 134°57'1011.3
2014-Nov-13 04:33N 34°13' E 135°09'6 6.4
2014-Nov-13 03:34N 34°11' E 135°01'6 1.9
2014-Nov-13 00:23N 34°09' E 134°55'1214.9
2014-Nov-12 23:34N 34°13' E 135°09'2 2.4
2014-Nov-12 22:33N 34°13' E 135°06'19 5.7
2014-Nov-12 19:13N 34°05' E 134°45'914.1
2014-Nov-12 18:34N 34°09' E 134°55'1211.9
2014-Nov-12 17:33N 34°13' E 135°09'0 0.0
2014-Nov-12 16:33N 34°13' E 135°09'0 0.0
2014-Nov-12 15:33N 34°13' E 135°09'6 6.1
2014-Nov-12 14:33N 34°11' E 135°02'7 2.1
2014-Nov-12 11:13N 34°09' E 134°54'914.2
2014-Nov-12 10:33N 34°12' E 135°04'4 3.7
2014-Nov-12 09:33N 34°13' E 135°09'11 2.6
2014-Nov-12 05:28N 34°10' E 134°56'1111.7
2014-Nov-12 04:33N 34°13' E 135°09'6 6.4
2014-Nov-12 03:34N 34°12' E 135°01'19 7.9
2014-Nov-12 01:10N 34°04' E 134°40'1215.8
2014-Nov-12 00:25N 34°09' E 134°53'1315.1
2014-Nov-11 23:34N 34°13' E 135°08'1 1.4
2014-Nov-11 22:33N 34°13' E 135°06'18 5.2
2014-Nov-11 19:07N 34°06' E 134°46'913.7
2014-Nov-11 18:28N 34°09' E 134°56'1111.9
2014-Nov-11 17:34N 34°13' E 135°09'  
Track history (hours):
 
Tides and Currents Weather Stations Pressure Air Temp Water Temp Dewpoint Dewpoint Depression Visibility Wind Speed Wind Dir Waves Ship Positions

Ferry Katsuragi

Last reported at 2014-Nov-21 17:34 UTC. Time now 2014-Nov-21 18:02 UTC.
Position N 34°13' E 135°09'.

Length 108 m; draft 4 m.

Type: Passenger vessel. MMSI: 431301245.

Date/timePositionNaut miles runAvg speedWind from/ knotsBaromVisibWave heightAir tempDewpointWater temp
2014-Nov-21 17:34N 34°13' E 135°09'0 0.0
2014-Nov-21 16:34N 34°13' E 135°09'0 0.0
2014-Nov-21 15:34N 34°13' E 135°09'7 6.6
2014-Nov-21 14:33N 34°11' E 135°01'11 3.6
2014-Nov-21 11:30N 34°07' E 134°49'1414.9
2014-Nov-21 10:33N 34°12' E 135°04'3 3.3
2014-Nov-21 09:33N 34°13' E 135°08'10 2.4
2014-Nov-21 05:25N 34°10' E 134°57'1011.6
2014-Nov-21 04:33N 34°13' E 135°09'6 6.1
2014-Nov-21 03:34N 34°11' E 135°02'19 8.2
2014-Nov-21 01:12N 34°04' E 134°40'1215.1
2014-Nov-21 00:25N 34°09' E 134°53'1314.9
2014-Nov-20 23:33N 34°13' E 135°08'2 1.8
2014-Nov-20 22:33N 34°13' E 135°06'23 7.4
2014-Nov-20 19:32N 34°04' E 134°40'1313.4
2014-Nov-20 18:33N 34°09' E 134°55'1211.9
2014-Nov-20 17:33N 34°13' E 135°09'0 0.0
2014-Nov-20 16:33N 34°13' E 135°09'0 0.0
2014-Nov-20 15:34N 34°13' E 135°09'7 6.9
2014-Nov-20 14:33N 34°11' E 135°01'11 3.7
2014-Nov-20 11:33N 34°07' E 134°48'1414.3
2014-Nov-20 10:33N 34°12' E 135°04'4 3.7
2014-Nov-20 09:33N 34°13' E 135°08'20 5.8
2014-Nov-20 06:08N 34°06' E 134°46'1014.3
2014-Nov-20 05:28N 34°09' E 134°57'1111.8
2014-Nov-20 04:34N 34°13' E 135°09'6 6.4
2014-Nov-20 03:34N 34°11' E 135°01'4 1.3
2014-Nov-20 00:14N 34°09' E 134°57'1015.1
2014-Nov-19 23:33N 34°13' E 135°08'1 1.1
2014-Nov-19 22:33N 34°13' E 135°06'19 5.6
2014-Nov-19 19:11N 34°06' E 134°45'1013.8
2014-Nov-19 18:28N 34°09' E 134°57'1111.7
2014-Nov-19 17:33N 34°13' E 135°09'0 0.0
2014-Nov-19 16:33N 34°13' E 135°09'0 0.0
2014-Nov-19 15:33N 34°13' E 135°09'7 6.8
2014-Nov-19 14:34N 34°11' E 135°01'3 0.7
2014-Nov-19 10:33N 34°12' E 135°04'3 3.5
2014-Nov-19 09:33N 34°13' E 135°08'11 2.8
2014-Nov-19 05:33N 34°09' E 134°55'1211.8
2014-Nov-19 04:33N 34°13' E 135°09'6 6.5
2014-Nov-19 03:33N 34°11' E 135°01'8 2.7
2014-Nov-19 00:30N 34°08' E 134°52'1415.2
2014-Nov-18 23:34N 34°13' E 135°08'2 1.7
2014-Nov-18 22:33N 34°13' E 135°06'18 5.3
2014-Nov-18 19:10N 34°06' E 134°46'913.8
2014-Nov-18 18:33N 34°09' E 134°55'1211.6
2014-Nov-18 17:34N 34°13' E 135°09'0 0.0
2014-Nov-18 16:34N 34°13' E 135°09'0 0.0
2014-Nov-18 15:34N 34°13' E 135°09'7 6.9
2014-Nov-18 14:33N 34°10' E 135°01'11 3.7
2014-Nov-18 11:30N 34°07' E 134°48'1414.9
2014-Nov-18 10:33N 34°12' E 135°04'4 3.8
2014-Nov-18 09:33N 34°13' E 135°08'20 5.8
2014-Nov-18 06:07N 34°06' E 134°46'1014.1
2014-Nov-18 05:23N 34°10' E 134°57'1011.8
2014-Nov-18 04:34N 34°13' E 135°09'6 6.4
2014-Nov-18 03:34N 34°11' E 135°01'4 1.2
2014-Nov-18 00:13N 34°10' E 134°57'1014.9
2014-Nov-17 23:34N 34°13' E 135°08'1 1.5
2014-Nov-17 22:33N 34°13' E 135°06'1514.5
2014-Nov-17 21:33N 34°07' E 134°50'4 1.7
2014-Nov-17 19:15N 34°06' E 134°45'1013.3
2014-Nov-17 18:31N 34°09' E 134°57'1111.2
2014-Nov-17 17:34N 34°13' E 135°09'0 0.0
2014-Nov-17 16:33N 34°13' E 135°09'0 0.0
2014-Nov-17 15:33N 34°13' E 135°09'7 7.0
2014-Nov-17 14:31N 34°11' E 135°00'10 3.5
2014-Nov-17 11:33N 34°07' E 134°48'1414.0
2014-Nov-17 10:34N 34°12' E 135°04'4 3.8
2014-Nov-17 09:34N 34°13' E 135°09'11 2.8
2014-Nov-17 05:32N 34°10' E 134°55'1111.6
2014-Nov-17 04:33N 34°13' E 135°09'6 6.0
2014-Nov-17 03:33N 34°12' E 135°02'9 3.0
2014-Nov-17 00:31N 34°07' E 134°52'1515.2
2014-Nov-16 23:33N 34°13' E 135°08'2 1.6
2014-Nov-16 22:34N 34°13' E 135°06'18 5.1
2014-Nov-16 19:07N 34°06' E 134°46'813.8
2014-Nov-16 18:33N 34°09' E 134°55'1212.1
2014-Nov-16 17:33N 34°13' E 135°09'0 0.0
2014-Nov-16 16:33N 34°13' E 135°09'0 0.0
2014-Nov-16 15:33N 34°13' E 135°09'6 5.5
2014-Nov-16 14:33N 34°11' E 135°03'2 0.4
2014-Nov-16 10:33N 34°12' E 135°04'4 4.0
2014-Nov-16 09:34N 34°13' E 135°09'12 3.1
2014-Nov-16 05:32N 34°09' E 134°54'1212.6
2014-Nov-16 04:33N 34°13' E 135°09'6 6.0
2014-Nov-16 03:34N 34°10' E 135°02'5 1.4
2014-Nov-16 00:12N 34°10' E 134°56'1015.2
2014-Nov-15 23:33N 34°13' E 135°08'3 2.6
2014-Nov-15 22:33N 34°12' E 135°05'8 2.0
2014-Nov-15 18:31N 34°09' E 134°56'1111.8
2014-Nov-15 17:33N 34°13' E 135°09'0 0.0
2014-Nov-15 16:34N 34°13' E 135°09'0 0.0
2014-Nov-15 15:33N 34°13' E 135°09'7 6.8
2014-Nov-15 14:33N 34°11' E 135°01'12 3.8
2014-Nov-15 11:30N 34°06' E 134°48'1515.6
2014-Nov-15 10:34N 34°12' E 135°04'4 3.8
2014-Nov-15 09:34N 34°13' E 135°09'1414.1
2014-Nov-15 08:33N 34°07' E 134°53'5 1.5
2014-Nov-15 05:26N 34°10' E 134°57'1011.7
2014-Nov-15 04:34N 34°13' E 135°09'6 6.4
2014-Nov-15 03:33N 34°11' E 135°01'9 3.2
2014-Nov-15 00:33N 34°08' E 134°51'1615.7
2014-Nov-14 23:34N 34°13' E 135°08'1 1.4
2014-Nov-14 22:33N 34°13' E 135°06'18 5.1
2014-Nov-14 19:07N 34°07' E 134°46'813.6
2014-Nov-14 18:33N 34°09' E 134°55'1212.0
2014-Nov-14 17:34N 34°13' E 135°09'0 0.0
2014-Nov-14 16:34N 34°13' E 135°09'0 0.0
2014-Nov-14 15:33N 34°13' E 135°09'5 5.4
2014-Nov-14 14:33N 34°12' E 135°02'8 2.4
2014-Nov-14 11:11N 34°08' E 134°54'915.1
2014-Nov-14 10:33N 34°12' E 135°04'4 4.0
2014-Nov-14 09:34N 34°13' E 135°09'11 2.7
2014-Nov-14 05:31N 34°10' E 134°56'1111.5
2014-Nov-14 04:33N 34°13' E 135°09'6 6.4
2014-Nov-14 03:33N 34°12' E 135°01'5 1.5
2014-Nov-14 00:16N 34°09' E 134°56'1115.4
2014-Nov-13 23:34N 34°13' E 135°08'2 1.9
2014-Nov-13 22:33N 34°13' E 135°06'10 2.4
2014-Nov-13 18:32N 34°09' E 134°55'1212.1
2014-Nov-13 17:34N 34°13' E 135°09'0 0.0
2014-Nov-13 16:33N 34°13' E 135°09'0 0.0
2014-Nov-13 15:33N 34°13' E 135°09'7 6.7
2014-Nov-13 14:33N 34°11' E 135°01'11 3.5
2014-Nov-13 11:28N 34°07' E 134°49'1414.8
2014-Nov-13 10:33N 34°12' E 135°04'4 3.6
2014-Nov-13 09:33N 34°13' E 135°08'20 5.7
2014-Nov-13 06:09N 34°06' E 134°46'1014.2
2014-Nov-13 05:28N 34°10' E 134°57'1011.3
2014-Nov-13 04:33N 34°13' E 135°09'6 6.4
2014-Nov-13 03:34N 34°11' E 135°01'6 1.9
2014-Nov-13 00:23N 34°09' E 134°55'1214.9
2014-Nov-12 23:34N 34°13' E 135°09'2 2.4
2014-Nov-12 22:33N 34°13' E 135°06'19 5.7
2014-Nov-12 19:13N 34°05' E 134°45'914.1
2014-Nov-12 18:34N 34°09' E 134°55'1211.9
2014-Nov-12 17:33N 34°13' E 135°09'0 0.0
2014-Nov-12 16:33N 34°13' E 135°09'0 0.0
2014-Nov-12 15:33N 34°13' E 135°09'6 6.1
2014-Nov-12 14:33N 34°11' E 135°02'7 2.1
2014-Nov-12 11:13N 34°09' E 134°54'914.2
2014-Nov-12 10:33N 34°12' E 135°04'4 3.7
2014-Nov-12 09:33N 34°13' E 135°09'11 2.6
2014-Nov-12 05:28N 34°10' E 134°56'1111.7
2014-Nov-12 04:33N 34°13' E 135°09'6 6.4
2014-Nov-12 03:34N 34°12' E 135°01'19 7.9
2014-Nov-12 01:10N 34°04' E 134°40'1215.8
2014-Nov-12 00:25N 34°09' E 134°53'1315.1
2014-Nov-11 23:34N 34°13' E 135°08'1 1.4
2014-Nov-11 22:33N 34°13' E 135°06'18 5.2
2014-Nov-11 19:07N 34°06' E 134°46'913.7
2014-Nov-11 18:28N 34°09' E 134°56'1111.9
2014-Nov-11 17:34N 34°13' E 135°09'  

Dump ship's entire track history